Terminal Aerodrome Forecast
Issued by NWS Wichita, KS

Home | Current Version | Previous Version | Text Only | Print | Product List | Glossary On
Versions: 1 2 3 4 5 6 7 8 9 10 11 12 13 14 15 16 17 18 19
000
FTUS43 KICT 230322 AAD
TAFICT
TAF AMD
KICT 230322Z 2303/2324 02020G30KT P6SM -TSRA SCT080CB
     FM230500 02010KT P6SM SCT250
     FM230700 08005KT P6SM SCT100 BKN250=

USA.gov is the U.S. government's official web portal to all federal, state and local government web resources and services.